createdAt,value
2022-08-02T00:01:18.205Z,101181.75
2022-08-02T00:03:44.697Z,101188.22
2022-08-02T00:06:11.258Z,101191.28
2022-08-02T00:08:37.717Z,101186.25
2022-08-02T00:11:04.186Z,101191.03
2022-08-02T00:13:30.703Z,101186.00
2022-08-02T00:15:57.124Z,101191.84
2022-08-02T00:18:23.630Z,101199.34
2022-08-02T00:20:50.284Z,101199.75
2022-08-02T00:23:17.011Z,101197.25
2022-08-02T00:25:55.603Z,101200.56
2022-08-02T00:28:27.565Z,101208.06
2022-08-02T00:30:54.642Z,101197.78
2022-08-02T00:34:26.723Z,101195.44
2022-08-02T00:36:07.807Z,101209.63
2022-08-02T00:38:34.389Z,101202.06
2022-08-02T00:41:00.891Z,101192.63
2022-08-02T00:43:27.367Z,101200.34
2022-08-02T00:46:03.207Z,101199.88
2022-08-02T00:48:30.652Z,101189.41
2022-08-02T00:50:58.894Z,101189.63
2022-08-02T00:53:25.375Z,101181.84
2022-08-02T00:55:51.859Z,101190.38
2022-08-02T00:58:19.091Z,101185.16
2022-08-02T01:00:45.547Z,101183.69
2022-08-02T01:03:11.964Z,101192.22
2022-08-02T01:06:02.373Z,101182.59
2022-08-02T01:08:29.193Z,101188.19
2022-08-02T01:10:58.137Z,101184.16
2022-08-02T01:13:25.856Z,101192.53
2022-08-02T01:16:02.091Z,101190.00
2022-08-02T01:18:35.830Z,101197.47
2022-08-02T01:21:23.534Z,101192.44
2022-08-02T01:24:19.886Z,101194.53
2022-08-02T01:26:58.918Z,101193.22
2022-08-02T01:29:31.418Z,101191.88
2022-08-02T01:32:09.853Z,101192.09
2022-08-02T01:35:05.550Z,101187.25
2022-08-02T01:37:44.453Z,101193.06
2022-08-02T01:40:14.199Z,101194.28
2022-08-02T01:42:45.828Z,101190.09
2022-08-02T01:45:14.899Z,101186.91
2022-08-02T01:47:44.448Z,101191.69
2022-08-02T01:50:14.091Z,101187.50
2022-08-02T01:52:53.145Z,101190.38
2022-08-02T01:55:23.906Z,101190.97
2022-08-02T01:58:04.279Z,101188.63
2022-08-02T02:00:35.744Z,101189.00
2022-08-02T02:03:06.475Z,101189.38
2022-08-02T02:05:35.957Z,101184.34
2022-08-02T02:08:05.820Z,101178.28
2022-08-02T02:10:34.950Z,101177.44
2022-08-02T02:13:07.919Z,101182.19
2022-08-02T02:15:35.500Z,101170.06
2022-08-02T02:18:12.652Z,101170.41
2022-08-02T02:20:41.248Z,101167.44
2022-08-02T02:23:08.055Z,101170.75
2022-08-02T02:25:36.400Z,101168.75
2022-08-02T02:28:35.382Z,101168.69
2022-08-02T02:31:12.153Z,101171.13
2022-08-02T02:33:48.706Z,101166.47
2022-08-02T02:36:17.729Z,101164.47
2022-08-02T02:38:45.408Z,101157.25
2022-08-02T02:41:13.886Z,101151.75
2022-08-02T02:43:42.179Z,101146.22
2022-08-02T02:46:10.754Z,101153.22
2022-08-02T02:48:37.885Z,101144.00
2022-08-02T02:51:06.222Z,101142.03
2022-08-02T02:54:31.016Z,101137.16
2022-08-02T02:56:23.902Z,101142.47
2022-08-02T02:58:50.975Z,101144.88
2022-08-02T03:01:55.068Z,101148.16
2022-08-02T03:04:17.730Z,101143.28
2022-08-02T03:06:44.391Z,101149.44
2022-08-02T03:09:11.537Z,101150.00
2022-08-02T03:11:39.107Z,101148.66
2022-08-02T03:14:10.245Z,101155.47
2022-08-02T03:16:44.765Z,101160.59
2022-08-02T03:19:11.530Z,101172.97
2022-08-02T03:21:38.166Z,101171.66
2022-08-02T03:24:05.399Z,101177.59
2022-08-02T03:26:31.949Z,101172.75
2022-08-02T03:28:58.407Z,101166.84
2022-08-02T03:31:24.816Z,101154.84
2022-08-02T03:33:51.630Z,101140.66
2022-08-02T03:36:21.502Z,101123.94
2022-08-02T03:38:50.078Z,101121.78
2022-08-02T03:41:18.162Z,101123.81
2022-08-02T03:43:47.885Z,101130.63
2022-08-02T03:46:21.549Z,101136.38
2022-08-02T03:48:50.578Z,101150.28
2022-08-02T03:51:17.784Z,101138.94
2022-08-02T03:53:44.874Z,101138.28
2022-08-02T03:56:11.830Z,101140.50
2022-08-02T03:58:38.245Z,101146.13
2022-08-02T04:01:04.820Z,101142.75
2022-08-02T04:03:31.326Z,101148.31
2022-08-02T04:06:00.946Z,101159.31
2022-08-02T04:08:35.378Z,101152.22
2022-08-02T04:11:21.349Z,101151.38
2022-08-02T04:13:47.945Z,101150.53
2022-08-02T04:16:21.164Z,101149.69
2022-08-02T04:18:55.468Z,101148.84
2022-08-02T04:21:25.970Z,101146.31
2022-08-02T04:23:53.487Z,101149.19
2022-08-02T04:26:26.733Z,101147.31
2022-08-02T04:28:55.781Z,101150.22
2022-08-02T04:31:22.814Z,101153.75
2022-08-02T04:33:49.895Z,101161.88
2022-08-02T04:36:31.660Z,101162.72
2022-08-02T04:38:58.967Z,101161.72
2022-08-02T04:41:37.498Z,101167.75
2022-08-02T04:44:07.847Z,101162.19
2022-08-02T04:46:36.442Z,101160.16
2022-08-02T04:49:03.271Z,101156.25
2022-08-02T04:51:38.153Z,101149.47
2022-08-02T04:54:09.506Z,101157.22
2022-08-02T04:56:37.705Z,101159.38
2022-08-02T04:59:04.399Z,101163.22
2022-08-02T05:01:30.992Z,101166.44
2022-08-02T05:03:57.670Z,101164.88
2022-08-02T05:06:24.517Z,101169.75
2022-08-02T05:08:52.911Z,101168.22
2022-08-02T05:11:20.806Z,101162.94
2022-08-02T05:13:57.470Z,101159.53
2022-08-02T05:16:31.176Z,101165.88
2022-08-02T05:18:58.646Z,101163.28
2022-08-02T05:21:25.063Z,101156.97
2022-08-02T05:23:51.601Z,101156.91
2022-08-02T05:26:18.149Z,101169.31
2022-08-02T05:28:44.606Z,101163.66
2022-08-02T05:31:13.128Z,101164.25
2022-08-02T05:33:40.043Z,101168.38
2022-08-02T05:36:07.047Z,101168.94
2022-08-02T05:38:36.808Z,101163.88
2022-08-02T05:41:03.703Z,101165.31
2022-08-02T05:43:30.400Z,101160.47
2022-08-02T05:45:56.982Z,101157.28
2022-08-02T05:48:26.558Z,101154.09
2022-08-02T05:51:03.895Z,101159.66
2022-08-02T05:53:37.350Z,101151.88
2022-08-02T05:56:32.495Z,101153.22
2022-08-02T05:59:05.100Z,101152.75
2022-08-02T06:01:40.733Z,101150.56
2022-08-02T06:04:10.727Z,101148.56
2022-08-02T06:06:38.118Z,101140.31
2022-08-02T06:09:11.159Z,101141.66
2022-08-02T06:12:01.961Z,101147.59
2022-08-02T06:14:31.911Z,101153.53
2022-08-02T06:16:58.767Z,101161.50
2022-08-02T06:19:26.321Z,101153.22
2022-08-02T06:22:41.685Z,101150.81
2022-08-02T06:24:40.139Z,101150.44
2022-08-02T06:27:06.971Z,101149.25
2022-08-02T06:29:39.019Z,101143.47
2022-08-02T06:32:07.256Z,101136.66
2022-08-02T06:34:38.316Z,101131.66
2022-08-02T06:37:16.518Z,101123.94
2022-08-02T06:39:50.248Z,101120.84
2022-08-02T06:42:27.455Z,101127.81
2022-08-02T06:44:57.829Z,101126.97
2022-08-02T06:47:25.261Z,101128.06
2022-08-02T06:49:54.198Z,101125.41
2022-08-02T06:52:30.934Z,101129.59
2022-08-02T06:55:01.734Z,101136.94
2022-08-02T06:57:29.150Z,101135.88
2022-08-02T06:59:56.204Z,101137.59
2022-08-02T07:02:23.049Z,101144.69
2022-08-02T07:04:49.744Z,101124.59
2022-08-02T07:07:16.236Z,101132.28
2022-08-02T07:10:00.333Z,101138.34
2022-08-02T07:12:29.609Z,101142.25
2022-08-02T07:14:57.042Z,101127.28
2022-08-02T07:17:23.449Z,101118.81
2022-08-02T07:19:49.875Z,101119.59
2022-08-02T07:22:18.708Z,101121.22
2022-08-02T07:24:45.402Z,101122.16
2022-08-02T07:27:12.696Z,101114.94
2022-08-02T07:29:46.340Z,101111.25
2022-08-02T07:32:22.442Z,101112.78
2022-08-02T07:34:52.689Z,101114.22
2022-08-02T07:37:52.830Z,101111.38
2022-08-02T07:40:14.882Z,101107.88
2022-08-02T07:42:47.263Z,101110.72
2022-08-02T07:45:14.268Z,101109.75
2022-08-02T07:47:42.175Z,101102.41
2022-08-02T07:50:10.034Z,101105.69
2022-08-02T07:52:36.611Z,101109.34
2022-08-02T07:55:03.592Z,101089.88
2022-08-02T07:57:30.999Z,101092.06
2022-08-02T07:59:57.662Z,101090.44
2022-08-02T08:02:25.124Z,101098.09
2022-08-02T08:04:52.477Z,101088.47
2022-08-02T08:07:20.261Z,101091.72
2022-08-02T08:09:47.543Z,101096.63
2022-08-02T08:12:16.247Z,101088.69
2022-08-02T08:14:44.269Z,101086.19
2022-08-02T08:17:11.122Z,101079.88
2022-08-02T08:19:51.528Z,101087.03
2022-08-02T08:22:22.024Z,101087.63
2022-08-02T08:24:49.205Z,101082.75
2022-08-02T08:27:16.706Z,101077.88
2022-08-02T08:29:44.030Z,101077.09
2022-08-02T08:32:16.008Z,101069.69
2022-08-02T08:34:43.590Z,101072.75
2022-08-02T08:37:10.276Z,101067.41
2022-08-02T08:39:56.600Z,101051.66
2022-08-02T08:42:26.587Z,101056.75
2022-08-02T08:44:56.063Z,101053.50
2022-08-02T08:47:24.134Z,101058.53
2022-08-02T08:49:54.865Z,101059.69
2022-08-02T08:52:23.861Z,101066.38
2022-08-02T08:54:51.326Z,101059.06
2022-08-02T08:57:20.290Z,101068.22
2022-08-02T08:59:46.808Z,101068.91
2022-08-02T09:02:16.558Z,101063.22
2022-08-02T09:04:55.163Z,101064.72
2022-08-02T09:07:22.251Z,101052.84
2022-08-02T09:09:48.757Z,101050.75
2022-08-02T09:12:16.209Z,101051.44
2022-08-02T09:14:43.074Z,101047.66
2022-08-02T09:17:12.644Z,101044.75
2022-08-02T09:19:45.889Z,101039.06
2022-08-02T09:22:15.541Z,101050.47
2022-08-02T09:24:44.419Z,101044.25
2022-08-02T09:27:13.434Z,101041.66
2022-08-02T09:30:05.918Z,101036.91
2022-08-02T09:32:29.661Z,101044.75
2022-08-02T09:34:56.191Z,101042.72
2022-08-02T09:37:30.589Z,101038.44
2022-08-02T09:40:03.452Z,101033.31
2022-08-02T09:42:30.732Z,101035.38
2022-08-02T09:45:02.083Z,101031.63
2022-08-02T09:47:31.074Z,101038.56
2022-08-02T09:49:58.568Z,101033.44
2022-08-02T09:52:37.343Z,101029.94
2022-08-02T09:55:11.551Z,101031.94
2022-08-02T09:57:38.622Z,101022.59
2022-08-02T10:00:14.001Z,101021.56
2022-08-02T10:03:21.617Z,101031.56
2022-08-02T10:05:55.970Z,101024.69
2022-08-02T10:08:29.282Z,101024.97
2022-08-02T10:11:03.360Z,101028.88
2022-08-02T10:13:32.403Z,101031.09
2022-08-02T10:15:59.532Z,101021.47
2022-08-02T10:18:38.792Z,101022.31
2022-08-02T10:21:11.651Z,101018.25
2022-08-02T10:23:40.590Z,101023.25
2022-08-02T10:26:08.056Z,101019.16
2022-08-02T10:28:34.757Z,101010.63
2022-08-02T10:31:04.806Z,101023.94
2022-08-02T10:33:35.965Z,101012.66
2022-08-02T10:36:07.376Z,101009.66
2022-08-02T10:38:35.502Z,101011.59
2022-08-02T10:41:02.049Z,101006.06
2022-08-02T10:43:31.301Z,101003.34
2022-08-02T10:46:36.529Z,101013.31
2022-08-02T10:49:39.271Z,101003.38
2022-08-02T10:52:08.451Z,100997.63
2022-08-02T10:54:42.265Z,100990.19
2022-08-02T10:57:23.375Z,100988.84
2022-08-02T10:59:52.495Z,100988.81
2022-08-02T11:02:42.182Z,100981.91
2022-08-02T11:05:12.043Z,100979.72
2022-08-02T11:07:56.714Z,100969.75
2022-08-02T11:10:26.127Z,100980.00
2022-08-02T11:13:09.419Z,100986.91
2022-08-02T11:16:09.301Z,100975.81
2022-08-02T11:18:49.519Z,100983.28
2022-08-02T11:21:33.811Z,100978.53
2022-08-02T11:24:27.490Z,100969.91
2022-08-02T11:26:54.646Z,100977.09
2022-08-02T11:29:22.195Z,100967.91
2022-08-02T11:31:49.270Z,100971.44
2022-08-02T11:34:36.792Z,100975.56
2022-08-02T11:37:03.657Z,100980.50
2022-08-02T11:39:30.282Z,100967.75
2022-08-02T11:41:58.942Z,100972.72
2022-08-02T11:44:27.295Z,100964.13
2022-08-02T11:46:58.769Z,100962.19
2022-08-02T11:49:25.454Z,100961.06
2022-08-02T11:52:11.349Z,100954.44
2022-08-02T11:54:42.203Z,100956.63
2022-08-02T11:57:18.756Z,100944.97
2022-08-02T11:59:48.297Z,100946.63
2022-08-02T12:02:15.934Z,100942.75
2022-08-02T12:04:42.590Z,100944.13
2022-08-02T12:07:10.710Z,100940.78
2022-08-02T12:09:41.033Z,100933.53
2022-08-02T12:12:07.903Z,100936.56
2022-08-02T12:14:43.582Z,100942.06
2022-08-02T12:17:28.775Z,100928.16
2022-08-02T12:19:55.286Z,100921.44
2022-08-02T12:22:27.239Z,100927.53
2022-08-02T12:24:56.756Z,100922.53
2022-08-02T12:27:34.113Z,100919.47
2022-08-02T12:30:04.645Z,100912.81
2022-08-02T12:32:31.260Z,100903.06
2022-08-02T12:35:26.296Z,100922.97
2022-08-02T12:37:53.782Z,100906.84
2022-08-02T12:40:33.500Z,100913.94
2022-08-02T12:43:05.741Z,100919.66
2022-08-02T12:45:38.350Z,100916.56
2022-08-02T12:48:08.740Z,100911.50
2022-08-02T12:50:37.634Z,100913.91
2022-08-02T12:53:15.924Z,100911.88
2022-08-02T12:56:01.955Z,100909.94
2022-08-02T12:58:30.779Z,100909.03
2022-08-02T13:00:59.946Z,100903.72
2022-08-02T13:04:12.149Z,100923.38
2022-08-02T13:06:40.805Z,100917.22
2022-08-02T13:09:01.595Z,100899.97
2022-08-02T13:11:28.672Z,100893.91
2022-08-02T13:13:55.171Z,100888.38
2022-08-02T13:16:30.465Z,100892.25
2022-08-02T13:18:57.971Z,100895.03
2022-08-02T13:21:40.114Z,100898.63
2022-08-02T13:24:32.969Z,100888.66
2022-08-02T13:26:55.053Z,100890.91
2022-08-02T13:29:21.699Z,100884.31
2022-08-02T13:31:48.162Z,100882.41
2022-08-02T13:34:16.712Z,100889.38
2022-08-02T13:36:43.480Z,100874.16
2022-08-02T13:39:11.860Z,100876.66
2022-08-02T13:41:38.392Z,100882.50
2022-08-02T13:44:10.374Z,100870.56
2022-08-02T13:46:45.469Z,100873.34
2022-08-02T13:49:18.396Z,100872.53
2022-08-02T13:51:46.177Z,100869.75
2022-08-02T13:54:12.614Z,100857.00
2022-08-02T13:56:39.049Z,100863.34
2022-08-02T13:59:54.426Z,100852.25
2022-08-02T14:01:53.372Z,100843.66
2022-08-02T14:04:19.944Z,100850.84
2022-08-02T14:06:46.450Z,100844.47
2022-08-02T14:09:16.925Z,100844.78
2022-08-02T14:11:45.283Z,100846.44
2022-08-02T14:14:15.994Z,100848.06
2022-08-02T14:16:44.518Z,100849.41
2022-08-02T14:19:15.572Z,100836.13
2022-08-02T14:21:46.316Z,100839.97
2022-08-02T14:24:14.180Z,100839.88
2022-08-02T14:26:44.849Z,100842.28
2022-08-02T14:29:13.028Z,100833.97
2022-08-02T14:31:43.998Z,100848.66
2022-08-02T14:34:12.815Z,100845.06
2022-08-02T14:36:39.413Z,100831.50
2022-08-02T14:39:06.143Z,100825.41
2022-08-02T14:41:57.924Z,100830.44
2022-08-02T14:44:20.573Z,100830.13
2022-08-02T14:46:47.089Z,100824.28
2022-08-02T14:49:14.796Z,100820.06
2022-08-02T14:51:53.531Z,100824.44
2022-08-02T14:54:20.057Z,100826.63
2022-08-02T14:56:46.576Z,100829.31
2022-08-02T14:59:15.318Z,100810.41
2022-08-02T15:01:41.842Z,100804.25
2022-08-02T15:04:08.457Z,100806.97
2022-08-02T15:06:34.912Z,100809.63
2022-08-02T15:09:01.468Z,100810.91
2022-08-02T15:11:28.130Z,100802.53
2022-08-02T15:13:55.028Z,100805.22
2022-08-02T15:16:47.224Z,100802.06
2022-08-02T15:19:13.130Z,100803.63
2022-08-02T15:21:52.417Z,100800.75
2022-08-02T15:24:21.342Z,100802.84
2022-08-02T15:26:50.117Z,100794.94
2022-08-02T15:29:17.645Z,100792.38
2022-08-02T15:31:44.418Z,100791.47
2022-08-02T15:34:10.996Z,100785.84
2022-08-02T15:36:37.630Z,100790.16
2022-08-02T15:39:04.831Z,100784.22
2022-08-02T15:41:31.945Z,100786.06
2022-08-02T15:44:00.630Z,100795.44
2022-08-02T15:46:37.373Z,100785.34
2022-08-02T15:49:03.921Z,100787.81
2022-08-02T15:51:30.480Z,100789.47
2022-08-02T15:53:56.963Z,100781.94
2022-08-02T15:56:24.232Z,100785.56
2022-08-02T15:58:55.471Z,100784.41
2022-08-02T16:01:25.300Z,100779.16
2022-08-02T16:03:58.542Z,100774.72
2022-08-02T16:06:25.263Z,100773.09
2022-08-02T16:08:53.719Z,100783.91
2022-08-02T16:11:21.956Z,100777.09
2022-08-02T16:13:53.990Z,100773.91
2022-08-02T16:16:29.330Z,100775.97
2022-08-02T16:18:57.422Z,100773.72
2022-08-02T16:21:24.909Z,100776.72
2022-08-02T16:23:58.886Z,100773.31
2022-08-02T16:26:32.466Z,100775.06
2022-08-02T16:29:00.311Z,100777.00
2022-08-02T16:31:27.007Z,100773.03
2022-08-02T16:33:56.566Z,100765.16
2022-08-02T16:36:25.832Z,100752.53
2022-08-02T16:38:53.149Z,100750.69
2022-08-02T16:41:20.119Z,100750.84
2022-08-02T16:43:46.744Z,100737.63
2022-08-02T16:46:13.625Z,100747.69
2022-08-02T16:48:40.289Z,100748.06
2022-08-02T16:51:13.875Z,100745.94
2022-08-02T16:54:00.700Z,100746.34
2022-08-02T16:56:28.532Z,100745.34
2022-08-02T16:58:59.579Z,100743.56
2022-08-02T17:04:16.276Z,100728.38
2022-08-02T17:06:47.719Z,100721.66
2022-08-02T17:10:01.918Z,100726.94
2022-08-02T17:12:06.766Z,100722.38
2022-08-02T17:17:34.165Z,100724.03
2022-08-02T17:20:01.078Z,100719.16
2022-08-02T17:22:27.594Z,100723.75
2022-08-02T17:24:54.025Z,100723.41
2022-08-02T17:27:20.654Z,100720.09
2022-08-02T17:29:47.184Z,100719.91
2022-08-02T17:32:15.516Z,100719.75
2022-08-02T17:34:56.679Z,100729.63
2022-08-02T17:37:28.728Z,100720.06
2022-08-02T17:39:55.537Z,100714.28
2022-08-02T17:42:23.068Z,100714.59
2022-08-02T17:44:54.144Z,100716.56
2022-08-02T17:47:21.552Z,100710.09
2022-08-02T17:49:48.949Z,100701.66
2022-08-02T17:52:52.093Z,100705.59
2022-08-02T17:55:04.460Z,100712.31
2022-08-02T17:57:55.968Z,100712.13
2022-08-02T18:00:18.034Z,100707.81
2022-08-02T18:02:52.531Z,100717.84
2022-08-02T18:05:22.063Z,100715.91
2022-08-02T18:07:51.951Z,100726.75
2022-08-02T18:10:22.130Z,100726.41
2022-08-02T18:12:49.796Z,100726.91
2022-08-02T18:15:16.387Z,100737.56
2022-08-02T18:17:46.579Z,100729.28
2022-08-02T18:20:13.191Z,100737.03
2022-08-02T18:22:43.000Z,100733.25
2022-08-02T18:25:09.920Z,100733.44
2022-08-02T18:30:28.244Z,100741.59
2022-08-02T18:33:57.762Z,100739.34
2022-08-02T18:35:43.607Z,100745.78
2022-08-02T18:38:11.792Z,100741.84
2022-08-02T18:40:38.594Z,100747.13
2022-08-02T18:43:07.699Z,100743.22
2022-08-02T18:46:05.719Z,100747.16
2022-08-02T18:48:21.103Z,100741.47
2022-08-02T18:50:48.525Z,100746.38
2022-08-02T18:53:39.247Z,100745.59
2022-08-02T18:56:05.315Z,100747.72
2022-08-02T18:58:32.819Z,100745.88
2022-08-02T19:00:59.694Z,100747.34
2022-08-02T19:03:37.251Z,100747.91
2022-08-02T19:06:04.183Z,100758.84
2022-08-02T19:08:34.884Z,100752.16
2022-08-02T19:11:02.530Z,100762.22
2022-08-02T19:13:29.809Z,100754.66
2022-08-02T19:15:56.611Z,100755.19
2022-08-02T19:18:26.844Z,100751.75
2022-08-02T19:21:02.931Z,100761.72
2022-08-02T19:23:32.760Z,100766.09
2022-08-02T19:26:00.002Z,100762.59
2022-08-02T19:28:27.396Z,100773.50
2022-08-02T19:30:57.836Z,100768.03
2022-08-02T19:34:04.515Z,100763.66
2022-08-02T19:36:11.807Z,100767.84
2022-08-02T19:38:43.816Z,100772.03
2022-08-02T19:41:13.195Z,100772.28
2022-08-02T19:44:25.536Z,100776.91
2022-08-02T19:46:26.387Z,100774.38
2022-08-02T19:48:52.887Z,100779.88
2022-08-02T19:51:55.060Z,100792.53
2022-08-02T19:54:10.893Z,100783.56
2022-08-02T19:56:40.107Z,100791.50
2022-08-02T19:59:13.064Z,100788.31
2022-08-02T20:01:43.500Z,100800.13
2022-08-02T20:07:00.311Z,100801.22
2022-08-02T20:09:33.533Z,100810.53
2022-08-02T20:12:14.245Z,100813.19
2022-08-02T20:14:40.950Z,100811.63
2022-08-02T20:17:20.653Z,100811.75
2022-08-02T20:19:47.511Z,100809.06
2022-08-02T20:22:16.065Z,100804.66
2022-08-02T20:24:44.068Z,100807.50
2022-08-02T20:27:16.749Z,100810.84
2022-08-02T20:29:50.394Z,100810.63
2022-08-02T20:32:22.416Z,100815.63
2022-08-02T20:34:49.983Z,100807.13
2022-08-02T20:37:59.650Z,100810.19
2022-08-02T20:40:05.297Z,100809.94
2022-08-02T20:42:31.844Z,100811.31
2022-08-02T20:44:59.534Z,100811.34
2022-08-02T20:47:28.441Z,100806.69
2022-08-02T20:50:31.461Z,100810.59
2022-08-02T20:53:00.151Z,100812.81
2022-08-02T20:55:27.726Z,100810.31
2022-08-02T20:58:01.053Z,100808.41
2022-08-02T21:00:28.990Z,100808.13
2022-08-02T21:02:55.500Z,100802.06
2022-08-02T21:05:26.890Z,100808.41
2022-08-02T21:08:13.798Z,100809.53
2022-08-02T21:10:43.706Z,100804.00
2022-08-02T21:13:22.237Z,100803.16
2022-08-02T21:15:51.315Z,100807.81
2022-08-02T21:18:25.398Z,100805.06
2022-08-02T21:21:04.439Z,100807.78
2022-08-02T21:23:36.573Z,100806.13
2022-08-02T21:26:04.075Z,100797.28
2022-08-02T21:28:43.798Z,100798.94
2022-08-02T21:31:15.765Z,100809.97
2022-08-02T21:33:56.922Z,100801.94
2022-08-02T21:36:31.446Z,100799.44
2022-08-02T21:39:05.823Z,100807.72
2022-08-02T21:41:39.642Z,100805.47
2022-08-02T21:44:13.712Z,100811.50
2022-08-02T21:46:44.589Z,100802.63
2022-08-02T21:49:12.539Z,100798.44
2022-08-02T21:51:39.894Z,100808.06
2022-08-02T21:54:17.876Z,100804.72
2022-08-02T21:56:52.161Z,100809.38
2022-08-02T21:59:25.611Z,100809.63
2022-08-02T22:01:56.492Z,100811.53
2022-08-02T22:04:24.476Z,100814.25
2022-08-02T22:06:50.979Z,100813.66
2022-08-02T22:09:44.046Z,100813.59
2022-08-02T22:12:10.186Z,100816.31
2022-08-02T22:14:39.866Z,100811.03
2022-08-02T22:17:09.099Z,100814.81
2022-08-02T22:19:40.282Z,100820.28
2022-08-02T22:22:20.754Z,100820.25
2022-08-02T22:24:55.173Z,100820.50
2022-08-02T22:27:23.143Z,100821.28
2022-08-02T22:29:49.578Z,100819.56
2022-08-02T22:32:36.035Z,100822.28
2022-08-02T22:38:17.122Z,100828.78
2022-08-02T22:40:38.383Z,100829.25
2022-08-02T22:43:05.859Z,100834.72
2022-08-02T22:45:37.489Z,100835.50
2022-08-02T22:48:04.677Z,100823.63
2022-08-02T22:50:31.215Z,100832.66
2022-08-02T22:52:57.952Z,100832.31
2022-08-02T22:55:24.618Z,100831.19
2022-08-02T22:57:58.926Z,100822.88
2022-08-02T22:58:37.495Z,100727.31
2022-08-02T22:58:44.225Z,100737.94
2022-08-02T22:58:49.481Z,100736.69
2022-08-02T22:58:54.319Z,100805.53
2022-08-02T23:00:26.198Z,100836.06
2022-08-02T23:02:52.910Z,100826.09
2022-08-02T23:05:20.780Z,100823.00
2022-08-02T23:07:48.540Z,100825.47
2022-08-02T23:10:15.360Z,100821.31
2022-08-02T23:12:41.794Z,100821.00
2022-08-02T23:15:09.122Z,100824.81
2022-08-02T23:17:54.141Z,100820.13
2022-08-02T23:20:20.686Z,100814.56
2022-08-02T23:22:47.212Z,100815.88
2022-08-02T23:25:14.496Z,100819.38
2022-08-02T23:27:50.502Z,100819.31
2022-08-02T23:30:18.693Z,100829.13
2022-08-02T23:32:46.723Z,100826.06
2022-08-02T23:35:16.609Z,100830.44
2022-08-02T23:37:59.322Z,100825.41
2022-08-02T23:40:40.632Z,100825.09
2022-08-02T23:43:14.212Z,100823.69
2022-08-02T23:45:43.677Z,100825.56
2022-08-02T23:48:10.139Z,100828.81
2022-08-02T23:50:36.766Z,100819.66
2022-08-02T23:53:03.367Z,100819.31
2022-08-02T23:55:29.780Z,100821.75
2022-08-02T23:57:56.219Z,100822.50
